Thursday, April 19, 2018, 5:26 PM EDT
Back to Local

KIDI, Indiana / Stewart Field

Location: Indiana, PA, United States Lat: 40.633
Local Time: 5:26 PM EDT (21:26 GMT) Lon: -79.1
Time Zone: US/Eastern Elev: 1407 ft

Show me the last for .
Show Decoded

2018-04-19 17:15 METAR KIDI 192115Z AUTO 32013G19KT 10SM BKN032 OVC043 03/M02 A3009 RMK A01 =
2018-04-19 16:55 METAR KIDI 192055Z AUTO 32013G20KT 10SM BKN029 OVC035 03/M02 A3009 RMK A01 =
2018-04-19 16:35 METAR KIDI 192035Z AUTO 33008G13KT 10SM OVC028 03/M02 A3008 RMK A01 =
2018-04-19 16:15 METAR KIDI 192015Z AUTO 33010G24KT 10SM BKN028 OVC033 03/M02 A3008 RMK A01 =
2018-04-19 15:55 METAR KIDI 191955Z AUTO 32013G20KT 290V350 10SM OVC032 03/M02 A3007 RMK A01 =
2018-04-19 15:35 METAR KIDI 191935Z AUTO 33014G20KT 10SM BKN030 OVC037 02/M02 A3006 RMK A01 =
2018-04-19 15:15 METAR KIDI 191915Z AUTO 32012G17KT 270V340 10SM SCT024 OVC029 02/M02 A3006 RMK
                 A01 =
2018-04-19 14:55 METAR KIDI 191855Z AUTO 31013G19KT 10SM BKN026 OVC037 02/M02 A3005 RMK A01 =
2018-04-19 14:35 METAR KIDI 191835Z AUTO 32012G21KT 10SM BKN020 BKN026 OVC037 01/M02 A3004 RMK
                 A01 =
2018-04-19 14:15 METAR KIDI 191815Z AUTO 31013G20KT 10SM OVC020 01/M02 A3003 RMK A01 =
2018-04-19 13:55 METAR KIDI 191755Z AUTO 31011G18KT 10SM OVC025 01/M02 A3003 RMK A01 =
2018-04-19 13:35 METAR KIDI 191735Z AUTO 32010G19KT 10SM BKN025 OVC032 01/M02 A3002 RMK A01 =
2018-04-19 13:15 METAR KIDI 191715Z AUTO 33009G18KT 10SM BKN025 OVC032 01/M02 A3001 RMK A01 =
2018-04-19 12:55 METAR KIDI 191655Z AUTO 34009G19KT 10SM BKN023 OVC030 01/M02 A3000 RMK A01 =
2018-04-19 12:35 METAR KIDI 191635Z AUTO 32012G21KT 10SM BKN020 OVC025 01/M01 A2999 RMK A01 =
2018-04-19 12:15 METAR KIDI 191615Z AUTO 32013G20KT 9SM FEW013 BKN022 BKN027 01/00 A2997 RMK A01
                 =
2018-04-19 11:55 METAR KIDI 191555Z AUTO 32012G20KT 3SM BR FEW014 SCT020 BKN025 01/01 A2996 RMK
                 A01 =
2018-04-19 11:35 METAR KIDI 191535Z AUTO 33010G18KT 2SM BR FEW003 SCT020 BKN028 01/01 A2995 RMK
                 A01 =
2018-04-19 11:15 METAR KIDI 191515Z AUTO 31007G15KT 1 3/4SM BR BKN008 BKN014 OVC055 01/01 A2993
                 RMK A01 =
2018-04-19 10:55 METAR KIDI 191455Z AUTO 32009G17KT 1 1/4SM BR BKN005 BKN014 OVC020 00/00 A2992
                 RMK A01 =
2018-04-19 10:35 METAR KIDI 191435Z AUTO 32010KT 1/2SM BR OVC007 01/01 A2990 RMK A01 =
2018-04-19 10:15 METAR KIDI 191415Z AUTO 31007KT 1SM BR BKN007 BKN012 01/01 A2988 RMK A01 =
2018-04-19 09:55 METAR KIDI 191355Z AUTO 32009KT 1/2SM FG OVC006 01/01 A2987 RMK A01 =
2018-04-19 09:35 METAR KIDI 191335Z AUTO 33007G12KT 1/2SM FG OVC005 01/01 A2985 RMK A01 =
2018-04-19 09:15 METAR KIDI 191315Z AUTO 34008KT 300V360 1/2SM BR OVC004 01/01 A2984 RMK A01 =
2018-04-19 08:55 METAR KIDI 191255Z AUTO 34007G12KT 1SM BR OVC005 01/01 A2982 RMK A01 =
2018-04-19 08:35 METAR KIDI 191235Z AUTO 34006KT 1 3/4SM BR BKN007 OVC014 01/01 A2981 RMK A01 =
2018-04-19 08:15 METAR KIDI 191215Z AUTO 33005KT 1 1/2SM BR OVC006 02/02 A2980 RMK A01 =
2018-04-19 07:55 METAR KIDI 191155Z AUTO 34005G10KT 1 1/4SM BR OVC007 02/02 A2979 RMK A01 =
2018-04-19 07:35 METAR KIDI 191135Z AUTO 33008KT 2SM BR BKN007 BKN011 OVC020 02/02 A2978 RMK A01
                 =
2018-04-19 07:15 METAR KIDI 191115Z AUTO VRB05KT 1SM BR OVC007 03/03 A2976 RMK A01 =
2018-04-19 06:55 METAR KIDI 191055Z AUTO VRB04KT 10SM BKN008 OVC015 03/03 A2975 RMK A01 =
2018-04-19 06:35 METAR KIDI 191035Z AUTO 36006KT 9SM BKN005 OVC010 03/03 A2973 RMK A01 =
2018-04-19 06:15 METAR KIDI 191015Z AUTO 35006KT 9SM OVC004 03/03 A2972 RMK A01 =
2018-04-19 05:55 METAR KIDI 190955Z AUTO 34004KT 7SM OVC004 03/03 A2971 RMK A01 =
2018-04-19 05:35 METAR KIDI 190935Z AUTO 32007KT 7SM OVC004 04/04 A2972 RMK A01 =
2018-04-19 05:15 METAR KIDI 190915Z AUTO 32004KT 7SM OVC004 04/04 A2972 RMK A01 =
2018-04-19 04:55 METAR KIDI 190855Z AUTO 35004KT 6SM BR OVC004 04/04 A2970 RMK A01 =
2018-04-19 04:35 METAR KIDI 190835Z AUTO 34006KT 7SM BKN004 OVC022 04/04 A2971 RMK A01 =
2018-04-19 04:15 METAR KIDI 190815Z AUTO 36006KT 5SM BR BKN004 OVC024 05/05 A2971 RMK A01 =
2018-04-19 03:55 METAR KIDI 190755Z AUTO 33004KT 5SM BR SCT003 OVC025 05/05 A2972 RMK A01 =
2018-04-19 03:35 METAR KIDI 190735Z AUTO 00000KT 6SM BR SCT003 BKN055 OVC095 05/05 A2972 RMK A01
                 =
2018-04-19 03:15 METAR KIDI 190715Z AUTO 00000KT 8SM FEW004 BKN060 OVC090 05/05 A2972 RMK A01 =
2018-04-19 02:55 METAR KIDI 190655Z AUTO 00000KT 6SM BR BKN004 BKN019 OVC060 05/05 A2971 RMK A01
                 =
2018-04-19 02:35 METAR KIDI 190635Z AUTO 00000KT 5SM BR FEW019 SCT030 BKN047 05/05 A2973 RMK A01
                 =
2018-04-19 02:15 METAR KIDI 190615Z AUTO 00000KT 8SM FEW029 BKN049 OVC065 05/05 A2974 RMK A01 =
2018-04-19 01:55 METAR KIDI 190555Z AUTO 00000KT 5SM BR FEW028 SCT036 OVC047 06/05 A2973 RMK A01
                 =
2018-04-19 01:35 METAR KIDI 190535Z AUTO 00000KT 4SM BR SCT036 OVC045 06/05 A2974 RMK A01 =
2018-04-19 01:15 METAR KIDI 190515Z AUTO 02004KT 7SM FEW035 SCT042 BKN049 06/05 A2975 RMK A01 =
2018-04-19 00:55 METAR KIDI 190455Z AUTO 00000KT 5SM HZ SCT034 BKN042 OVC055 06/04 A2974 RMK A01
                 =
2018-04-19 00:35 METAR KIDI 190435Z AUTO 00000KT 6SM HZ BKN034 OVC055 07/04 A2975 RMK A01 =
2018-04-19 00:15 METAR KIDI 190415Z AUTO 32006KT 7SM BKN034 OVC055 08/02 A2974 RMK A01 =
2018-04-18 23:55 METAR KIDI 190355Z AUTO VRB03KT 10SM SCT034 OVC050 08/02 A2970 RMK A01 =
2018-04-18 23:35 METAR KIDI 190335Z AUTO VRB04KT 10SM SCT036 SCT045 OVC050 08/02 A2970 RMK A01 =
2018-04-18 23:15 METAR KIDI 190315Z AUTO 00000KT 10SM FEW036 OVC046 09/02 A2972 RMK A01 =
2018-04-18 22:55 METAR KIDI 190255Z AUTO 13003KT 10SM OVC047 09/02 A2973 RMK A01 =
2018-04-18 22:35 METAR KIDI 190235Z AUTO 04006KT 10SM FEW039 BKN050 OVC060 09/01 A2973 RMK A01 =
2018-04-18 22:15 METAR KIDI 190215Z AUTO 04004KT 10SM OVC037 09/02 A2974 RMK A01 =
2018-04-18 21:55 METAR KIDI 190155Z AUTO 18004KT 10SM OVC033 09/02 A2976 RMK A01 =
2018-04-18 21:35 METAR KIDI 190135Z AUTO 00000KT 10SM OVC034 09/02 A2976 RMK A01 =
2018-04-18 21:15 METAR KIDI 190115Z AUTO 00000KT 10SM BKN035 OVC042 09/01 A2976 RMK A01 =
2018-04-18 20:55 METAR KIDI 190055Z AUTO 00000KT 10SM SCT038 OVC045 09/01 A2975 RMK A01 =
2018-04-18 20:35 METAR KIDI 190035Z AUTO 00000KT 10SM BKN035 OVC042 10/00 A2977 RMK A01 =
2018-04-18 20:15 METAR KIDI 190015Z AUTO 00000KT 10SM FEW035 BKN044 OVC050 10/M00 A2977 RMK A01 =
2018-04-18 19:55 METAR KIDI 182355Z AUTO 00000KT 10SM BKN050 OVC055 10/00 A2977 RMK A01 =
2018-04-18 19:35 METAR KIDI 182335Z AUTO 00000KT 10SM OVC055 10/M00 A2976 RMK A01 =
2018-04-18 19:15 METAR KIDI 182315Z AUTO 00000KT 10SM OVC060 10/00 A2977 RMK A01 =
2018-04-18 18:55 METAR KIDI 182255Z AUTO 25003KT 10SM OVC060 10/M00 A2977 RMK A01 =
2018-04-18 18:35 METAR KIDI 182235Z AUTO 21004KT 10SM BKN060 OVC070 10/M00 A2978 RMK A01 =
2018-04-18 18:15 METAR KIDI 182215Z AUTO 25004KT 10SM BKN065 OVC075 10/M00 A2978 RMK A01 =
2018-04-18 17:55 METAR KIDI 182155Z AUTO 00000KT 10SM BKN065 10/M01 A2978 RMK A01 =
2018-04-18 17:35 METAR KIDI 182135Z AUTO 00000KT 10SM CLR 11/M01 A2979 RMK A01 =

Support USWX by starting your Amazon purchase here.